Terminal Aerodrome Forecast
Issued by NWS

Home | Current Version | Previous Version | Graphics & Text | Print | Product List | Glossary On
Versions: 1 2 3 4 5 6 7 8 9 10 11 12 13 14 15 16
000
FTUS43 KABR 281900 AAA
TAFATY
TAF AMD
KATY 281917Z 2819/0118 21022G29KT P6SM SCT250
      TEMPO 2819/2821 BKN025
     FM010300 23009KT P6SM SCT250
     FM011600 26011KT P6SM BKN050=

USA.gov is the U.S. government's official web portal to all federal, state and local government web resources and services.